Flight Track Log - Related Links

Times and Time Zones

All times are in EDT time to prevent confusion due to time zone crossing. See the N552XJ flight status page for this flight to view local times or setup timezone preferences in your user account.

Time Position Orientation Groundspeed Altitude Reporting Facility
EDT Latitude Longitude Course Direction KTS MPH feet Rate Location/Type
Sun 05:47:00 PM 42.4667 -71.3833 267° West 195 224 2,000  Level KA90
Sun 05:49:27 PM 42.3122 -71.3872 181° South 258 297 16,000 3,478 Climbing Boston Center
Sun 05:50:27 PM 42.2944 -71.5083 259° West 267 307 14,000  Descending Boston Center
Sun 05:51:27 PM 42.2786 -71.6264 260° West 297 342 16,000 1,000 Climbing Boston Center
Sun 05:52:27 PM 42.2669 -71.7414 262° West 342 394 16,000  Level Boston Center
Sun 05:53:27 PM 42.2531 -71.8792 262° West 353 406 16,000  Level Boston Center
Sun 05:54:27 PM 42.2411 -71.9969 262° West 353 406 16,000  Level Boston Center
Sun 05:55:27 PM 42.2250 -72.1372 261° West 347 399 16,000  Level Boston Center
Sun 05:56:27 PM 42.2128 -72.2522 262° West 352 405 16,000  Level Boston Center
Sun 05:57:27 PM 42.1983 -72.3925 262° West 352 405 16,000  Level Boston Center
Sun 05:58:27 PM 42.1858 -72.5044 261° West 352 405 16,000  Level Boston Center
Sun 05:59:27 PM 42.1689 -72.6475 261° West 352 405 16,000  Level Boston Center
Sun 06:00:27 PM 42.1581 -72.7733 263° West 352 405 16,000  Level Boston Center
Sun 06:01:27 PM 42.1514 -72.8908 266° West 347 399 16,000  Level Boston Center
Sun 06:02:27 PM 42.1403 -73.0336 264° West 352 405 16,000  Level Boston Center
Sun 06:03:27 PM 42.1336 -73.1483 266° West 352 405 16,000  Level Boston Center
Sun 06:04:27 PM 42.1242 -73.2911 265° West 346 398 16,000  Level Boston Center
Sun 06:05:27 PM 42.1128 -73.4253 264° West 351 404 16,000  Level Boston Center
Sun 06:06:27 PM 42.1053 -73.5539 266° West 351 404 16,000  Level Boston Center
Sun 06:07:27 PM 42.0956 -73.6794 264° West 351 404 16,000  Level Boston Center
Sun 06:08:27 PM 42.0525 -73.7961 244° Southwest 344 396 16,000  Level Boston Center
Sun 06:09:27 PM 41.9869 -73.8786 223° Southwest 356 410 16,000  Level Boston Center
Sun 06:10:27 PM 41.9086 -73.9800 224° Southwest 361 415 16,000  Level Boston Center
Sun 06:11:27 PM 41.8428 -74.0619 223° Southwest 366 421 16,000 -400 Level Boston Center
Sun 06:12:27 PM 41.7683 -74.1519 222° Southwest 366 421 15,200 -1,700 Descending Boston Center
Sun 06:13:27 PM 41.6961 -74.2389 222° Southwest 339 390 12,600 -2,250 Descending Boston Center
Sun 06:14:27 PM 41.6408 -74.3094 224° Southwest 312 359 10,700 -2,050 Descending Boston Center
Sun 06:15:27 PM 41.5769 -74.3911 224° Southwest 298 343 8,500 -1,800 Descending Boston Center
Sun 06:16:27 PM 41.5258 -74.4506 221° Southwest 291 335 7,100 -850 Descending Boston Center
Sun 06:17:27 PM 41.4519 -74.5036 208° Southwest 282 325 6,800 -367 Descending Boston Center
Sun 06:19:27 PM 41.3000 -74.5500 193° South 274 315 6,000 -700 Descending New York TRACON
Sun 06:20:27 PM 41.2333 -74.5333 169° South 269 310 4,700 -600 Descending New York TRACON
Sun 06:21:27 PM 41.1667 -74.5000 159° South 271 312 4,800 -350 Climbing New York TRACON
Sun 06:22:27 PM 41.1000 -74.4667 159° South 256 295 4,000 -400 Descending New York TRACON
Sun 06:23:27 PM 41.0333 -74.4333 159° South 239 275 4,000 -300 Level New York TRACON
Sun 06:24:27 PM 40.9667 -74.4000 159° South 242 278 3,400 -500 Descending New York TRACON
Sun 06:25:27 PM 40.9167 -74.3667 153° Southeast 222 255 3,000 -200 Descending New York TRACON
Sun 06:26:27 PM 40.8500 -74.3500 169° South 218 251 3,000 -400 Level New York TRACON
Sun 06:27:27 PM 40.8000 -74.3167 153° Southeast 217 250 2,200 -500 Descending New York TRACON
Sun 06:28:27 PM 40.7500 -74.2833 153° Southeast 188 216 2,000 -100 Descending New York TRACON
Sun 06:29:27 PM 40.7500 -74.2333 90° East 165 190 2,000 -250 Level New York TRACON
Sun 06:30:27 PM 40.7667 -74.1833 66° East 166 191 1,500 -250 Descending New York TRACON
Sun 06:31:27 PM 40.8000 -74.1333 49° Northeast 164 189 1,500  Level New York TRACON

Login

Don't have an account? Register now (free) for customized features, flight alerts, and more!